Time;durP1;ratioP1;P1;durP2;ratioP2;P2;SDS_P1;SDS_P2;PMS_P1;PMS_P2;Temp;Humidity;BMP_temperature;BMP_pressure;BME280_temperature;BME280_humidity;BME280_pressure;Samples;Min_cycle;Max_cycle;Signal;HPM_P1;HPM_P2
2022/01/27 00:07:34;;;;;;;16.33;15.53;;;3.10;82.80;;;;;;4968036;28;20397;-78
2022/01/27 00:12:29;;;;;;;16.10;15.30;;;3.10;82.80;;;;;;4949114;29;20058;-78
2022/01/27 00:15:08;;;;;;;16.80;15.90;;;3.20;82.90;;;;;;4953327;29;20047;-78
2022/01/27 00:17:39;;;;;;;16.50;15.70;;;3.20;82.80;;;;;;4953438;29;20039;-78
2022/01/27 00:20:05;;;;;;;;;;;3.10;82.80;;;;;;4949301;29;20394;-78
2022/01/27 00:22:31;;;;;;;17.57;16.30;;;3.10;82.70;;;;;;4953973;28;19933;-78
2022/01/27 00:24:57;;;;;;;16.60;15.80;;;3.20;82.80;;;;;;4952744;28;20509;-78
2022/01/27 00:27:23;;;;;;;16.23;15.47;;;3.20;82.70;;;;;;4954468;29;20042;-77
2022/01/27 00:29:49;;;;;;;16.50;15.70;;;3.20;82.70;;;;;;4954887;29;20027;-78
2022/01/27 00:32:15;;;;;;;15.93;15.03;;;3.20;82.70;;;;;;4949427;28;20376;-78
2022/01/27 00:34:41;;;;;;;15.80;15.07;;;3.20;82.70;;;;;;4953821;28;20055;-78
2022/01/27 00:37:08;;;;;;;17.90;16.80;;;3.30;82.70;;;;;;4954502;29;20358;-78
2022/01/27 00:39:34;;;;;;;17.23;16.37;;;3.30;82.60;;;;;;4966570;28;20038;-78
2022/01/27 00:42:00;;;;;;;16.87;15.83;;;3.30;82.60;;;;;;4940425;29;20414;-78
2022/01/27 00:44:26;;;;;;;17.43;16.43;;;3.30;82.60;;;;;;4941852;29;20036;-77
2022/01/27 00:46:52;;;;;;;16.83;15.70;;;3.30;82.60;;;;;;4941690;28;20409;-77
2022/01/27 00:49:18;;;;;;;17.10;16.30;;;3.30;82.60;;;;;;4951663;29;20111;-78
2022/01/27 00:51:46;;;;;;;16.40;15.57;;;3.30;82.60;;;;;;4965161;28;20402;-78
2022/01/27 00:54:22;;;;;;;16.20;15.40;;;3.30;82.60;;;;;;4950783;29;20054;-78
2022/01/27 00:56:57;;;;;;;16.80;15.90;;;3.30;82.60;;;;;;4964709;28;20031;-78
2022/01/27 01:04:40;;;;;;;15.53;14.83;;;3.30;82.50;;;;;;4955979;28;20391;-78
2022/01/27 01:07:07;;;;;;;15.97;15.17;;;3.40;82.50;;;;;;4966596;28;20489;-78
2022/01/27 01:15:10;;;;;;;16.40;15.60;;;3.40;82.50;;;;;;4900801;29;20048;-78
2022/01/27 01:30:50;;;;;;;16.47;15.60;;;3.40;82.30;;;;;;4914586;29;20132;-78
2022/01/27 01:33:22;;;;;;;;;;;3.40;82.30;;;;;;4913727;29;20040;-77
2022/01/27 01:35:50;;;;;;;15.43;14.73;;;3.40;82.30;;;;;;4897448;29;19923;-78
2022/01/27 01:38:20;;;;;;;17.93;16.93;;;3.40;82.30;;;;;;4913710;29;20404;-78
2022/01/27 01:40:47;;;;;;;18.35;17.10;;;3.40;82.30;;;;;;4878681;29;20049;-78
2022/01/27 01:43:14;;;;;;;20.00;18.23;;;3.40;82.40;;;;;;4891663;29;20140;-78
2022/01/27 01:45:40;;;;;;;17.50;16.33;;;3.50;82.50;;;;;;4911990;29;20040;-78
2022/01/27 01:48:06;;;;;;;16.87;15.87;;;3.50;82.50;;;;;;4913063;29;20048;-78
2022/01/27 01:50:32;;;;;;;17.43;16.23;;;3.50;82.40;;;;;;4912335;29;20478;-78
2022/01/27 01:52:59;;;;;;;17.70;16.60;;;3.50;82.40;;;;;;4950437;29;20051;-78
2022/01/27 01:55:25;;;;;;;17.40;16.47;;;3.60;82.30;;;;;;4948117;28;20521;-78
2022/01/27 01:57:51;;;;;;;17.33;16.53;;;3.60;82.20;;;;;;4952232;29;20023;-78
2022/01/27 02:00:18;;;;;;;18.07;17.17;;;3.50;82.20;;;;;;4967550;28;20046;-78
2022/01/27 02:02:44;;;;;;;16.90;16.00;;;3.50;82.30;;;;;;4950532;29;20042;-78
2022/01/27 02:05:10;;;;;;;16.80;15.90;;;3.50;82.30;;;;;;4951661;29;20037;-78
2022/01/27 02:17:50;;;;;;;15.73;14.97;;;3.50;82.30;;;;;;4937939;29;20044;-78
2022/01/27 02:18:57;;;;;;;17.48;16.58;;;3.50;82.40;;;;;;4944140;29;20039;-78
2022/01/27 02:21:23;;;;;;;16.57;15.77;;;3.40;82.30;;;;;;4949379;29;20046;-78
2022/01/27 02:23:49;;;;;;;17.17;16.37;;;3.40;82.30;;;;;;4941971;29;20038;-77
2022/01/27 02:26:15;;;;;;;15.83;15.10;;;3.40;82.30;;;;;;4930607;29;20047;-78
2022/01/27 02:28:41;;;;;;;17.93;17.00;;;3.50;82.40;;;;;;4922225;29;20059;-78
2022/01/27 02:31:07;;;;;;;17.63;16.30;;;3.50;82.40;;;;;;4924983;29;20043;-77
2022/01/27 02:33:33;;;;;;;16.00;15.23;;;3.50;82.40;;;;;;4947266;29;20043;-77
2022/01/27 02:36:02;;;;;;;18.10;16.73;;;3.50;82.40;;;;;;4954094;29;20159;-78
2022/01/27 02:38:28;;;;;;;18.50;17.07;;;3.50;82.30;;;;;;4906904;29;20051;-78
2022/01/27 02:40:59;;;;;;;16.93;16.13;;;3.50;82.30;;;;;;4955040;29;20047;-78
2022/01/27 02:43:25;;;;;;;15.75;14.95;;;3.50;82.30;;;;;;4928319;29;20047;-77
2022/01/27 02:45:58;;;;;;;17.20;16.10;;;3.50;82.30;;;;;;4926333;29;20039;-78
2022/01/27 02:48:25;;;;;;;18.17;17.13;;;3.50;82.40;;;;;;4935207;29;20042;-78
2022/01/27 02:50:51;;;;;;;18.17;17.17;;;3.50;83.10;;;;;;4955075;28;20046;-78
2022/01/27 02:53:17;;;;;;;17.73;16.53;;;3.60;82.40;;;;;;4955385;29;20035;-78
2022/01/27 02:55:43;;;;;;;18.40;17.50;;;3.60;82.30;;;;;;4936426;29;20058;-78
2022/01/27 02:58:10;;;;;;;17.80;17.00;;;3.60;82.20;;;;;;4947176;29;20023;-78
2022/01/27 03:00:36;;;;;;;16.73;15.93;;;3.60;82.20;;;;;;4936281;29;20058;-78
2022/01/27 03:03:02;;;;;;;18.60;17.17;;;3.60;82.10;;;;;;4945565;29;20417;-78
2022/01/27 03:05:28;;;;;;;18.97;17.70;;;3.50;82.10;;;;;;4952178;28;20035;-78
2022/01/27 03:07:55;;;;;;;20.53;19.13;;;3.50;82.30;;;;;;4947892;29;20387;-78
2022/01/27 03:10:21;;;;;;;18.00;17.07;;;3.50;82.30;;;;;;4933502;29;20054;-78
2022/01/27 03:12:48;;;;;;;17.70;16.80;;;3.50;82.30;;;;;;4946973;28;20097;-78
2022/01/27 03:15:14;;;;;;;16.00;15.30;;;3.50;82.30;;;;;;4933136;28;20129;-77
2022/01/27 03:17:40;;;;;;;19.50;17.50;;;3.50;82.40;;;;;;4966719;28;20034;-77
2022/01/27 03:20:08;;;;;;;17.43;16.53;;;3.50;82.30;;;;;;4954099;28;20046;-78
2022/01/27 03:22:34;;;;;;;16.73;15.93;;;3.50;82.30;;;;;;4938270;28;20046;-78
2022/01/27 03:25:00;;;;;;;18.27;17.20;;;3.50;82.30;;;;;;4954072;28;20036;-78
2022/01/27 03:27:28;;;;;;;18.00;17.10;;;3.50;82.30;;;;;;4963798;28;20027;-78
2022/01/27 03:29:54;;;;;;;19.20;17.63;;;3.50;82.30;;;;;;4949508;29;20028;-78
2022/01/27 03:32:20;;;;;;;18.10;17.20;;;3.50;82.30;;;;;;4933407;28;20318;-78
2022/01/27 03:34:46;;;;;;;18.30;17.40;;;3.60;82.40;;;;;;4950979;29;20051;-78
2022/01/27 03:37:12;;;;;;;20.97;19.67;;;3.60;82.30;;;;;;4950394;29;20034;-78
2022/01/27 03:39:40;;;;;;;17.00;16.10;;;3.60;82.20;;;;;;4954425;29;20046;-78
2022/01/27 03:42:07;;;;;;;17.97;16.97;;;3.70;82.30;;;;;;4954426;28;20027;-78
2022/01/27 03:44:33;;;;;;;17.63;16.63;;;3.70;82.20;;;;;;4954454;29;20042;-78
2022/01/27 03:46:59;;;;;;;18.60;17.70;;;3.70;82.10;;;;;;4937441;29;20043;-78
2022/01/27 03:49:25;;;;;;;16.80;16.00;;;3.70;82.10;;;;;;4949805;29;20050;-77
2022/01/27 03:51:52;;;;;;;17.80;16.83;;;3.70;82.00;;;;;;4964946;28;20047;-78
2022/01/27 03:54:18;;;;;;;17.20;16.30;;;3.70;82.00;;;;;;4953917;29;20050;-77
2022/01/27 03:56:44;;;;;;;18.73;17.77;;;3.70;82.10;;;;;;4940452;29;20031;-77
2022/01/27 03:59:10;;;;;;;18.47;17.40;;;3.70;82.00;;;;;;4938472;29;20036;-78
2022/01/27 04:01:38;;;;;;;18.53;17.27;;;3.70;82.10;;;;;;4958719;28;20066;-77
2022/01/27 04:04:04;;;;;;;16.47;15.30;;;3.70;82.10;;;;;;4942805;29;20388;-78
2022/01/27 04:06:36;;;;;;;16.97;16.03;;;3.70;82.10;;;;;;4945737;29;20039;-78
2022/01/27 04:09:06;;;;;;;18.07;17.23;;;3.70;82.10;;;;;;4954382;29;20032;-78
2022/01/27 04:11:32;;;;;;;17.60;16.80;;;3.80;82.10;;;;;;4954463;28;20036;-78
2022/01/27 04:13:58;;;;;;;19.60;18.70;;;3.80;82.10;;;;;;4954428;29;20398;-77
2022/01/27 04:16:24;;;;;;;20.97;19.37;;;3.80;82.10;;;;;;4964858;28;20051;-77
2022/01/27 04:18:51;;;;;;;16.30;15.60;;;3.80;82.10;;;;;;4965065;28;20039;-77
2022/01/27 04:21:17;;;;;;;18.10;17.00;;;3.80;82.10;;;;;;4954340;28;20041;-77
2022/01/27 04:23:43;;;;;;;18.47;17.53;;;3.80;82.10;;;;;;4951640;28;20031;-77
2022/01/27 04:26:11;;;;;;;23.30;22.20;;;3.80;82.10;;;;;;4968989;28;20387;-77
2022/01/27 04:28:38;;;;;;;17.30;16.33;;;3.80;82.00;;;;;;4953369;29;20474;-77
2022/01/27 04:31:07;;;;;;;16.40;15.60;;;3.80;81.90;;;;;;4950778;28;20047;-77
2022/01/27 04:33:35;;;;;;;16.83;15.93;;;3.80;82.00;;;;;;4951935;29;20497;-77
2022/01/27 04:36:07;;;;;;;16.00;15.30;;;3.80;82.00;;;;;;4967963;28;20474;-77
2022/01/27 04:38:47;;;;;;;18.87;17.97;;;3.80;82.10;;;;;;4952390;29;20047;-77
2022/01/27 04:41:40;;;;;;;20.50;19.20;;;3.80;82.80;;;;;;4951097;29;20038;-77
2022/01/27 04:44:16;;;;;;;20.00;18.60;;;3.80;82.10;;;;;;4951172;29;20031;-77
2022/01/27 04:46:50;;;;;;;17.02;16.15;;;3.80;82.00;;;;;;4937221;28;20043;-77
2022/01/27 04:49:16;;;;;;;16.00;15.30;;;3.80;82.00;;;;;;4954107;29;20039;-77
2022/01/27 04:51:43;;;;;;;18.23;17.07;;;3.80;82.00;;;;;;4967789;28;20043;-77
2022/01/27 04:54:37;;;;;;;20.37;18.77;;;3.80;82.00;;;;;;4951776;28;20031;-77
2022/01/27 04:56:59;;;;;;;18.90;17.80;;;3.80;82.00;;;;;;4939587;29;20046;-77
2022/01/27 04:59:29;;;;;;;18.63;17.43;;;3.90;82.10;;;;;;4951746;29;20404;-77
2022/01/27 05:02:03;;;;;;;16.33;15.43;;;3.90;82.00;;;;;;4949070;28;20494;-79
2022/01/27 05:04:33;;;;;;;17.23;16.17;;;3.90;82.00;;;;;;4952673;29;20043;-79
2022/01/27 05:06:59;;;;;;;16.35;15.55;;;3.90;82.00;;;;;;4952950;29;20497;-79
2022/01/27 05:09:25;;;;;;;16.60;15.73;;;3.90;82.00;;;;;;4968664;28;20042;-79
2022/01/27 05:12:00;;;;;;;17.57;16.37;;;4.00;82.00;;;;;;4953618;29;20031;-77
2022/01/27 05:14:26;;;;;;;18.40;17.10;;;4.00;82.00;;;;;;4951333;29;20331;-77
2022/01/27 05:16:53;;;;;;;22.13;20.77;;;4.00;82.00;;;;;;4954223;28;20044;-77
2022/01/27 05:19:19;;;;;;;18.67;17.67;;;3.90;81.90;;;;;;4932998;29;20047;-77
2022/01/27 05:21:45;;;;;;;17.97;16.43;;;4.00;82.00;;;;;;4932569;29;20043;-77
2022/01/27 05:24:11;;;;;;;17.33;16.43;;;4.00;82.00;;;;;;4938878;29;20390;-77
2022/01/27 05:26:38;;;;;;;16.83;15.93;;;4.00;82.00;;;;;;4918369;29;20040;-77
2022/01/27 05:29:04;;;;;;;17.97;16.67;;;4.00;82.00;;;;;;4970749;28;20039;-77
2022/01/27 05:31:30;;;;;;;18.07;17.00;;;4.00;82.00;;;;;;4949646;28;20054;-77
2022/01/27 05:33:57;;;;;;;15.20;14.50;;;4.00;81.90;;;;;;4918359;29;20043;-77
2022/01/27 05:36:23;;;;;;;17.30;16.40;;;4.10;81.90;;;;;;4940749;29;20433;-77
2022/01/27 05:38:49;;;;;;;15.37;14.67;;;4.10;81.90;;;;;;4966944;28;20403;-77
2022/01/27 05:41:15;;;;;;;15.13;14.43;;;4.00;81.80;;;;;;4933565;29;20043;-76
2022/01/27 05:43:42;;;;;;;17.50;16.17;;;4.00;81.80;;;;;;4934812;29;20046;-76
2022/01/27 05:46:08;;;;;;;16.63;15.83;;;4.00;81.90;;;;;;4952051;28;20414;-77
2022/01/27 05:48:34;;;;;;;15.37;14.67;;;4.00;81.90;;;;;;4950902;29;20035;-77
2022/01/27 05:51:00;;;;;;;16.73;15.47;;;4.00;82.10;;;;;;4921704;29;20262;-77
2022/01/27 05:53:28;;;;;;;19.07;17.63;;;4.00;81.80;;;;;;4950193;29;20043;-76
2022/01/27 05:55:54;;;;;;;17.20;16.30;;;4.00;81.80;;;;;;4938782;29;20379;-77
2022/01/27 05:58:20;;;;;;;17.83;16.57;;;4.00;81.80;;;;;;4950536;29;20043;-76
2022/01/27 06:00:46;;;;;;;17.00;15.87;;;4.00;81.90;;;;;;4949595;28;20043;-76
2022/01/27 06:03:12;;;;;;;16.00;15.30;;;4.00;81.90;;;;;;4950962;29;20042;-79
2022/01/27 06:05:38;;;;;;;15.63;14.93;;;4.00;81.90;;;;;;4949307;28;20035;-79
2022/01/27 06:08:05;;;;;;;18.43;17.03;;;4.10;82.80;;;;;;4937740;29;20042;-79
2022/01/27 06:10:31;;;;;;;16.60;15.80;;;4.10;82.00;;;;;;4954145;28;20035;-79
2022/01/27 06:12:57;;;;;;;17.47;16.47;;;4.10;81.90;;;;;;4960311;28;20050;-80
2022/01/27 06:15:26;;;;;;;18.10;17.07;;;4.10;81.90;;;;;;4955455;28;20051;-80
2022/01/27 06:17:53;;;;;;;16.97;15.43;;;4.10;81.90;;;;;;4934793;29;20028;-80
2022/01/27 06:20:19;;;;;;;17.20;16.30;;;4.10;81.80;;;;;;4939417;29;20412;-80
2022/01/27 06:22:45;;;;;;;15.87;15.07;;;4.10;81.90;;;;;;4975050;28;20401;-80
2022/01/27 06:25:12;;;;;;;16.23;15.50;;;4.10;81.90;;;;;;4957725;28;20027;-79
2022/01/27 06:27:38;;;;;;;17.30;16.40;;;4.10;82.00;;;;;;4954421;29;20039;-80
2022/01/27 06:30:06;;;;;;;16.47;15.67;;;4.10;81.90;;;;;;4952237;28;20109;-81
2022/01/27 06:32:33;;;;;;;16.40;15.20;;;4.10;81.80;;;;;;4937877;29;20031;-81
2022/01/27 06:34:59;;;;;;;17.57;16.33;;;4.10;81.80;;;;;;4969966;28;20042;-80
2022/01/27 06:37:25;;;;;;;15.57;14.80;;;4.10;81.80;;;;;;4957938;28;20035;-80
2022/01/27 06:39:52;;;;;;;16.87;16.07;;;4.10;81.80;;;;;;4953513;29;20031;-79
2022/01/27 06:42:19;;;;;;;16.90;16.10;;;4.10;81.90;;;;;;4955587;28;20050;-82
2022/01/27 06:44:45;;;;;;;17.13;16.33;;;4.10;82.00;;;;;;4951213;28;20429;-81
2022/01/27 06:47:11;;;;;;;18.43;17.03;;;4.10;82.00;;;;;;4950802;29;20524;-80
2022/01/27 06:49:37;;;;;;;17.33;16.30;;;4.10;82.00;;;;;;4957697;28;20035;-81
2022/01/27 06:52:03;;;;;;;16.87;16.07;;;4.10;82.00;;;;;;4957559;28;20130;-79
2022/01/27 06:54:29;;;;;;;17.90;16.67;;;4.20;82.00;;;;;;4949377;29;20042;-78
2022/01/27 06:56:56;;;;;;;18.57;17.40;;;4.20;81.90;;;;;;4950180;29;20579;-78
2022/01/27 06:59:22;;;;;;;17.97;16.97;;;4.20;81.80;;;;;;4969147;28;20470;-79
2022/01/27 07:01:48;;;;;;;18.10;16.87;;;4.20;81.80;;;;;;4950719;29;20039;-78
2022/01/27 07:04:14;;;;;;;18.70;17.30;;;4.30;81.80;;;;;;4937224;29;20402;-79
2022/01/27 07:06:40;;;;;;;18.50;17.27;;;4.20;81.80;;;;;;4953420;29;20046;-78
2022/01/27 07:09:06;;;;;;;18.23;16.97;;;4.20;81.80;;;;;;4951364;29;20631;-79
2022/01/27 07:11:32;;;;;;;17.23;16.33;;;4.20;81.80;;;;;;4953002;29;20386;-78
2022/01/27 07:13:58;;;;;;;17.10;16.00;;;4.20;81.80;;;;;;4952765;29;20027;-77
2022/01/27 07:16:25;;;;;;;18.30;16.93;;;4.20;81.80;;;;;;4955988;28;20047;-77
2022/01/27 07:18:52;;;;;;;18.37;17.47;;;4.30;81.90;;;;;;4951978;28;20042;-78
2022/01/27 07:21:19;;;;;;;18.23;17.13;;;4.30;81.80;;;;;;4943904;29;20505;-77
2022/01/27 07:23:46;;;;;;;19.97;18.63;;;4.30;81.80;;;;;;4953490;29;20032;-76
2022/01/27 07:26:14;;;;;;;19.23;18.03;;;4.30;81.80;;;;;;4938576;29;20039;-76
2022/01/27 07:28:40;;;;;;;17.87;16.97;;;4.30;81.80;;;;;;4935149;29;20031;-76
2022/01/27 07:31:06;;;;;;;18.40;17.37;;;4.30;81.80;;;;;;4934681;29;20509;-75
2022/01/27 07:33:33;;;;;;;19.97;18.57;;;4.30;81.80;;;;;;4946696;29;20039;-76
2022/01/27 07:35:59;;;;;;;18.17;17.27;;;4.30;81.80;;;;;;4967265;28;20062;-75
2022/01/27 07:38:26;;;;;;;18.17;17.10;;;4.30;81.80;;;;;;4954126;29;20044;-76
2022/01/27 07:40:53;;;;;;;17.20;16.37;;;4.30;81.80;;;;;;4952766;29;20035;-77
2022/01/27 07:43:19;;;;;;;20.27;19.00;;;4.30;81.80;;;;;;4967632;28;20062;-77
2022/01/27 07:45:45;;;;;;;17.87;16.87;;;4.30;81.80;;;;;;4953907;28;20038;-77
2022/01/27 07:48:11;;;;;;;16.97;16.17;;;4.40;81.90;;;;;;4967667;28;20466;-77
2022/01/27 07:50:37;;;;;;;17.63;16.53;;;4.40;81.80;;;;;;4965125;28;20059;-77
2022/01/27 07:53:03;;;;;;;16.83;16.03;;;4.40;81.90;;;;;;4955485;29;20035;-77
2022/01/27 07:55:29;;;;;;;18.90;17.90;;;4.40;81.90;;;;;;4951531;29;20405;-76
2022/01/27 07:57:55;;;;;;;18.33;17.17;;;4.40;81.80;;;;;;4953315;28;20030;-77
2022/01/27 08:00:22;;;;;;;20.03;18.60;;;4.40;82.10;;;;;;4953584;28;20128;-77
2022/01/27 08:02:48;;;;;;;20.47;18.73;;;4.40;81.90;;;;;;4969360;28;20039;-77
2022/01/27 08:05:14;;;;;;;18.10;17.20;;;4.40;81.90;;;;;;4938636;29;20027;-79
2022/01/27 08:07:40;;;;;;;19.60;18.27;;;4.40;81.80;;;;;;4953120;29;20028;-79
2022/01/27 08:10:06;;;;;;;17.03;16.17;;;4.40;81.80;;;;;;4967000;28;20035;-80
2022/01/27 08:12:38;;;;;;;17.40;16.50;;;4.40;81.90;;;;;;4966859;28;20419;-78
2022/01/27 08:15:04;;;;;;;16.83;15.93;;;4.50;81.80;;;;;;4934620;28;20411;-78
2022/01/27 08:17:30;;;;;;;18.73;17.70;;;4.50;81.70;;;;;;4937142;29;20051;-77
2022/01/27 08:19:56;;;;;;;19.10;17.57;;;4.50;81.70;;;;;;4967654;28;20042;-77
2022/01/27 08:22:22;;;;;;;18.93;17.37;;;4.50;81.70;;;;;;4952457;28;20047;-77
2022/01/27 08:24:48;;;;;;;18.97;17.60;;;4.50;81.70;;;;;;4950810;29;20042;-77
2022/01/27 08:27:18;;;;;;;18.10;17.10;;;4.50;81.80;;;;;;4949853;29;20501;-78
2022/01/27 08:29:50;;;;;;;17.07;16.13;;;4.60;81.70;;;;;;4951312;28;20035;-78
2022/01/27 08:32:19;;;;;;;18.70;17.07;;;4.60;81.60;;;;;;4920370;29;20406;-77
2022/01/27 08:34:45;;;;;;;17.63;16.70;;;4.60;81.60;;;;;;4954405;29;20031;-79
2022/01/27 08:37:18;;;;;;;17.00;16.07;;;4.60;81.60;;;;;;4950252;29;20055;-77
2022/01/27 08:39:46;;;;;;;16.87;16.07;;;4.60;81.60;;;;;;4950656;29;20480;-76
2022/01/27 08:42:12;;;;;;;18.90;17.60;;;4.60;81.60;;;;;;4934277;29;20043;-79
2022/01/27 08:44:38;;;;;;;17.43;16.53;;;4.60;81.60;;;;;;4933551;29;20047;-80
2022/01/27 08:47:05;;;;;;;19.30;17.67;;;4.60;81.60;;;;;;4954210;28;20509;-80
2022/01/27 08:49:31;;;;;;;16.80;16.00;;;4.60;81.60;;;;;;4951328;28;20035;-81
2022/01/27 08:51:57;;;;;;;18.60;17.20;;;4.60;81.60;;;;;;4950070;29;20486;-81
2022/01/27 08:54:24;;;;;;;17.10;16.27;;;4.60;81.50;;;;;;4950302;29;20043;-81
2022/01/27 08:56:50;;;;;;;17.83;16.93;;;4.70;81.60;;;;;;4950972;29;20047;-80
2022/01/27 08:59:16;;;;;;;19.37;18.10;;;4.70;81.60;;;;;;4967599;28;20035;-80
2022/01/27 09:01:43;;;;;;;16.70;15.90;;;4.70;81.50;;;;;;4950265;29;20379;-81
2022/01/27 09:04:09;;;;;;;20.23;18.60;;;4.80;81.60;;;;;;4949431;29;20047;-80
2022/01/27 09:06:35;;;;;;;17.93;17.03;;;4.70;81.40;;;;;;4951783;29;20486;-81
2022/01/27 09:09:02;;;;;;;16.90;16.10;;;4.80;81.40;;;;;;4950006;29;20034;-80
2022/01/27 09:11:30;;;;;;;18.53;17.43;;;4.80;81.40;;;;;;4931763;29;20035;-80
2022/01/27 09:14:00;;;;;;;18.60;17.37;;;4.80;81.40;;;;;;4949970;29;20052;-81
2022/01/27 09:16:27;;;;;;;17.77;16.87;;;4.80;81.40;;;;;;4949006;28;20082;-82
2022/01/27 09:18:54;;;;;;;20.23;18.77;;;4.80;82.20;;;;;;4945177;29;20096;-82
2022/01/27 09:21:25;;;;;;;16.03;15.33;;;4.80;81.30;;;;;;4941163;28;20058;-81
2022/01/27 09:23:51;;;;;;;19.73;18.23;;;4.80;81.30;;;;;;4949609;29;20027;-80
2022/01/27 09:26:41;;;;;;;18.13;17.13;;;4.80;81.30;;;;;;4952551;29;20619;-81
2022/01/27 09:29:08;;;;;;;19.02;17.48;;;4.80;81.30;;;;;;4965893;28;20417;-81
2022/01/27 09:31:35;;;;;;;18.10;17.20;;;4.90;81.30;;;;;;4950304;28;20039;-81
2022/01/27 09:34:01;;;;;;;18.80;17.67;;;4.90;81.30;;;;;;4949590;29;20027;-81
2022/01/27 09:36:27;;;;;;;17.93;16.87;;;4.90;81.20;;;;;;4949831;29;20061;-80
2022/01/27 09:38:53;;;;;;;20.50;18.87;;;4.90;81.20;;;;;;4936280;28;20032;-80
2022/01/27 09:41:20;;;;;;;18.03;17.10;;;4.90;81.30;;;;;;4947780;28;20045;-80
2022/01/27 09:43:52;;;;;;;19.40;17.77;;;4.90;81.30;;;;;;4952164;29;20015;-78
2022/01/27 09:46:20;;;;;;;20.13;18.77;;;4.90;81.30;;;;;;4950301;28;20517;-78
2022/01/27 09:48:48;;;;;;;17.30;16.50;;;5.00;81.30;;;;;;4944693;28;20513;-78
2022/01/27 09:53:51;;;;;;;20.20;17.80;;;5.00;81.00;;;;;;4940651;28;20043;-79
2022/01/27 09:56:18;;;;;;;18.23;17.23;;;5.10;81.10;;;;;;4953366;29;20047;-80
2022/01/27 09:58:44;;;;;;;20.60;18.97;;;5.10;81.10;;;;;;4951309;29;20039;-79
2022/01/27 10:01:10;;;;;;;18.67;17.77;;;5.10;81.00;;;;;;4950183;28;20032;-80
2022/01/27 10:03:59;;;;;;;19.17;18.10;;;5.20;81.10;;;;;;4948338;29;20027;-81
2022/01/27 10:06:29;;;;;;;18.43;17.33;;;5.20;81.00;;;;;;4950004;29;20031;-82
2022/01/27 10:09:14;;;;;;;19.37;18.27;;;5.20;81.00;;;;;;4952882;28;20028;-81
2022/01/27 10:11:41;;;;;;;18.43;17.57;;;5.30;81.00;;;;;;4949336;29;20043;-80
2022/01/27 10:14:21;;;;;;;20.87;19.10;;;5.30;80.90;;;;;;4951273;29;20039;-80
2022/01/27 10:16:49;;;;;;;20.20;19.07;;;5.30;80.90;;;;;;4952219;28;20058;-82
2022/01/27 10:19:15;;;;;;;19.00;18.10;;;5.40;80.80;;;;;;4948636;29;20042;-83
2022/01/27 10:21:41;;;;;;;18.23;17.27;;;5.40;81.60;;;;;;4951943;28;20039;-83
2022/01/27 10:24:19;;;;;;;19.10;18.13;;;5.50;80.80;;;;;;4950234;29;20471;-83
2022/01/27 10:26:53;;;;;;;18.37;17.40;;;5.50;80.80;;;;;;4937730;29;20038;-80
2022/01/27 10:29:33;;;;;;;18.90;17.83;;;5.50;80.70;;;;;;4950234;29;20419;-82
2022/01/27 10:32:06;;;;;;;18.83;17.38;;;5.60;80.70;;;;;;4941440;28;20039;-80
2022/01/27 10:34:54;;;;;;;19.77;18.57;;;5.60;80.70;;;;;;4947676;29;20042;-78
2022/01/27 10:37:20;;;;;;;18.70;17.60;;;5.60;80.70;;;;;;4946675;29;20058;-81
2022/01/27 10:39:46;;;;;;;16.83;16.03;;;5.70;80.70;;;;;;4951863;28;20034;-78
2022/01/27 10:42:13;;;;;;;20.47;18.83;;;5.70;80.70;;;;;;4919338;29;20043;-79
2022/01/27 10:44:44;;;;;;;19.37;18.37;;;5.70;80.60;;;;;;4949510;29;20031;-79
2022/01/27 10:47:16;;;;;;;17.80;17.00;;;5.80;80.50;;;;;;4950626;28;20031;-80
2022/01/27 10:49:50;;;;;;;18.40;17.47;;;5.90;80.50;;;;;;4943115;28;20035;-78
2022/01/27 10:52:29;;;;;;;20.47;19.37;;;5.90;80.40;;;;;;4953223;28;20027;-79
2022/01/27 10:54:57;;;;;;;19.00;18.10;;;6.00;80.30;;;;;;4936084;29;20058;-81
2022/01/27 10:57:24;;;;;;;17.80;16.90;;;6.00;80.20;;;;;;4942800;29;20039;-81
2022/01/27 11:00:03;;;;;;;19.87;18.60;;;6.10;80.20;;;;;;4938374;29;20031;-77
2022/01/27 11:02:29;;;;;;;19.30;18.30;;;6.10;80.10;;;;;;4938855;29;20042;-77
2022/01/27 11:04:55;;;;;;;18.73;17.73;;;6.20;80.20;;;;;;4955715;29;20470;-79
2022/01/27 11:07:24;;;;;;;18.97;18.07;;;6.20;80.00;;;;;;4938660;28;20046;-80
2022/01/27 11:09:52;;;;;;;19.30;18.00;;;6.20;80.00;;;;;;4948832;29;20042;-77
2022/01/27 11:12:18;;;;;;;18.03;17.13;;;6.30;80.00;;;;;;4946034;29;20039;-77
2022/01/27 11:14:48;;;;;;;19.63;18.50;;;6.40;79.90;;;;;;4953661;29;20035;-77
2022/01/27 11:17:19;;;;;;;20.30;18.63;;;6.50;79.90;;;;;;4954761;28;20035;-77
2022/01/27 11:22:39;;;;;;;19.70;18.67;;;6.60;79.70;;;;;;4961142;28;19910;-78
2022/01/27 11:27:34;;;;;;;19.70;18.70;;;6.70;79.40;;;;;;4938748;29;20035;-78
2022/01/27 11:30:07;;;;;;;19.90;18.83;;;6.80;79.40;;;;;;4960367;28;20042;-78
2022/01/27 11:32:37;;;;;;;20.40;19.27;;;6.80;79.40;;;;;;4953843;28;20034;-78
2022/01/27 11:35:14;;;;;;;21.67;20.03;;;6.90;79.40;;;;;;4955089;29;20377;-78
2022/01/27 11:37:40;;;;;;;20.63;19.53;;;7.00;79.40;;;;;;4943921;29;20379;-78
2022/01/27 11:40:08;;;;;;;21.07;19.80;;;7.00;79.20;;;;;;4940842;29;20430;-78
2022/01/27 11:42:34;;;;;;;19.90;18.80;;;7.10;79.10;;;;;;4943905;28;20521;-80
2022/01/27 11:45:25;;;;;;;20.20;19.20;;;7.20;79.10;;;;;;4951468;29;20398;-77
2022/01/27 11:47:51;;;;;;;20.02;19.05;;;7.30;79.00;;;;;;4945954;29;20508;-77
2022/01/27 11:50:35;;;;;;;20.23;19.20;;;7.40;79.00;;;;;;4959170;28;20051;-77
2022/01/27 11:53:03;;;;;;;19.33;18.33;;;7.60;78.90;;;;;;4954645;28;20040;-77
2022/01/27 11:55:44;;;;;;;21.13;19.83;;;7.80;78.80;;;;;;4947333;29;20038;-77
2022/01/27 11:58:10;;;;;;;;;;;7.90;78.60;;;;;;4934503;29;20048;-77
2022/01/27 12:00:37;;;;;;;19.48;18.48;;;8.10;78.50;;;;;;4945155;28;19957;-77
2022/01/27 12:03:04;;;;;;;20.73;19.50;;;8.30;78.30;;;;;;4953444;28;20367;-77
2022/01/27 12:05:39;;;;;;;19.17;18.27;;;8.50;78.30;;;;;;4951624;28;20047;-77
2022/01/27 12:08:15;;;;;;;22.33;21.13;;;8.60;78.30;;;;;;4945697;29;20056;-77
2022/01/27 12:10:51;;;;;;;20.05;19.05;;;8.70;78.20;;;;;;4953573;29;20043;-77
2022/01/27 12:13:28;;;;;;;21.88;20.77;;;8.80;78.20;;;;;;4949635;29;20035;-76
2022/01/27 12:19:10;;;;;;;19.73;18.83;;;9.10;78.30;;;;;;4953698;28;20541;-77
2022/01/27 12:21:48;;;;;;;19.65;18.65;;;9.10;78.30;;;;;;4952955;28;20047;-77
2022/01/27 12:24:25;;;;;;;20.45;19.45;;;9.20;78.30;;;;;;4954336;29;20027;-77
2022/01/27 12:26:55;;;;;;;21.85;20.58;;;9.30;78.40;;;;;;4940109;29;20038;-77
2022/01/27 12:29:35;;;;;;;22.05;20.95;;;9.50;78.40;;;;;;4954124;29;20031;-77
2022/01/27 12:32:08;;;;;;;21.75;20.33;;;9.50;78.30;;;;;;4953477;28;20031;-77
2022/01/27 12:34:35;;;;;;;21.65;20.45;;;9.50;78.30;;;;;;4950073;29;20394;-77
2022/01/27 12:37:08;;;;;;;22.00;20.98;;;9.60;78.40;;;;;;4953830;29;20062;-77
2022/01/27 12:39:37;;;;;;;516.50;265.58;;;9.60;78.50;;;;;;4954392;29;20050;-78
2022/01/27 12:42:06;;;;;;;1999.90;999.90;;;9.60;78.40;;;;;;4945475;29;20468;-78
2022/01/27 12:44:33;;;;;;;1999.90;999.90;;;9.60;78.40;;;;;;4935763;29;20051;-81
2022/01/27 12:47:14;;;;;;;1999.90;999.90;;;9.60;78.40;;;;;;4948770;28;20043;-82
2022/01/27 12:49:48;;;;;;;1999.90;999.90;;;9.50;78.40;;;;;;4951151;28;20039;-83
2022/01/27 12:52:20;;;;;;;1999.90;999.90;;;9.40;78.40;;;;;;4950978;29;20375;-83
2022/01/27 12:54:48;;;;;;;1999.90;999.90;;;9.40;78.60;;;;;;4946413;29;20550;-84
2022/01/27 12:57:20;;;;;;;1999.90;999.90;;;9.20;78.50;;;;;;4941364;29;20046;-84
2022/01/27 12:59:46;;;;;;;1999.90;999.90;;;9.20;78.70;;;;;;4927711;29;20023;-82
2022/01/27 13:02:13;;;;;;;1999.90;999.90;;;9.10;78.60;;;;;;4936392;28;20027;-82
2022/01/27 13:04:39;;;;;;;1999.90;999.90;;;9.00;78.60;;;;;;4949789;29;20027;-85
2022/01/27 13:07:06;;;;;;;1999.90;999.90;;;8.90;78.70;;;;;;4950743;28;20070;-85
2022/01/27 13:09:34;;;;;;;1999.90;999.90;;;8.80;78.70;;;;;;4949235;29;20031;-85
2022/01/27 13:12:10;;;;;;;1999.90;999.90;;;8.80;78.80;;;;;;4949674;29;20390;-82
2022/01/27 13:14:51;;;;;;;1999.90;999.90;;;8.70;78.80;;;;;;4950765;28;20035;-82
2022/01/27 13:17:29;;;;;;;1999.90;999.90;;;8.80;78.80;;;;;;4948053;29;20057;-85
2022/01/27 13:19:59;;;;;;;1999.90;999.90;;;8.70;78.70;;;;;;4951548;29;20417;-86
2022/01/27 13:22:33;;;;;;;1999.90;999.90;;;8.70;78.60;;;;;;4949036;29;20048;-86
2022/01/27 13:25:01;;;;;;;1999.90;999.90;;;8.70;78.60;;;;;;4955358;28;20038;-84
2022/01/27 13:27:27;;;;;;;1999.90;999.90;;;8.70;78.50;;;;;;4961885;28;20031;-84
2022/01/27 13:29:58;;;;;;;1999.90;999.90;;;8.80;78.50;;;;;;4951986;28;20024;-85
2022/01/27 13:32:24;;;;;;;1999.90;999.90;;;8.80;78.40;;;;;;4951211;28;20046;-85
2022/01/27 13:34:50;;;;;;;1999.90;999.90;;;8.80;78.30;;;;;;4950786;28;20058;-85